Time;durP1;ratioP1;P1;durP2;ratioP2;P2;SDS_P1;SDS_P2;PMS_P1;PMS_P2;Temp;Humidity;BMP_temperature;BMP_pressure;BME280_temperature;BME280_humidity;BME280_pressure;Samples;Min_cycle;Max_cycle;Signal;HPM_P1;HPM_P2
2022/09/20 00:00:52;;;;;;;12.77;4.60;;;13.60;99.90;;;;;;6183247;23;20377;-85
2022/09/20 00:03:25;;;;;;;8.33;4.37;;;13.60;99.90;;;;;;6168458;23;20391;-87
2022/09/20 00:06:37;;;;;;;7.90;3.60;;;13.60;99.90;;;;;;6220462;23;20462;-85
2022/09/20 00:15:55;;;;;;;9.30;4.03;;;13.50;99.90;;;;;;6223012;23;20464;-86
2022/09/20 00:28:50;;;;;;;11.67;4.37;;;13.50;99.90;;;;;;6222349;23;20417;-86
2022/09/20 00:31:46;;;;;;;8.43;4.23;;;13.50;99.90;;;;;;6245884;23;20778;-85
2022/09/20 00:37:51;;;;;;;8.00;5.47;;;13.50;99.90;;;;;;6222813;23;20408;-85
2022/09/20 00:41:03;;;;;;;8.10;3.33;;;13.50;99.90;;;;;;6210318;23;20402;-85
2022/09/20 00:44:31;;;;;;;15.80;3.87;;;13.50;99.90;;;;;;6246437;22;20392;-85
2022/09/20 00:51:12;;;;;;;;;;;;;;;;;;;;;
2022/09/20 01:00:23;;;;;;;9.33;3.70;;;13.40;99.90;;;;;;6220249;23;20389;-85
2022/09/20 01:09:49;;;;;;;11.17;4.10;;;13.40;99.90;;;;;;6189907;23;20392;-86
2022/09/20 01:12:55;;;;;;;8.60;3.23;;;13.40;99.90;;;;;;6252585;23;20391;-85
2022/09/20 01:25:05;;;;;;;9.77;3.10;;;13.30;99.90;;;;;;6226557;23;20438;-85
2022/09/20 01:28:13;;;;;;;11.60;2.87;;;13.30;99.90;;;;;;6182845;23;20417;-85
2022/09/20 01:31:20;;;;;;;7.90;2.80;;;13.30;99.90;;;;;;6220555;23;20381;-85
2022/09/20 01:44:24;;;;;;;7.80;3.27;;;13.30;22.00;;;;;;6207977;23;20749;-87
2022/09/20 01:50:32;;;;;;;;;;;;;;;;;;;;;
2022/09/20 01:53:20;;;;;;;7.40;3.70;;;13.30;1.00;;;;;;6218957;23;20404;-85
2022/09/20 01:56:23;;;;;;;10.23;4.40;;;13.30;1.00;;;;;;6221882;23;20482;-85
2022/09/20 01:59:44;;;;;;;9.57;4.87;;;13.30;1.00;;;;;;6221848;23;20385;-85
2022/09/20 02:02:53;;;;;;;17.37;3.70;;;13.30;1.00;;;;;;6197555;23;20372;-86
2022/09/20 02:06:27;;;;;;;9.80;3.60;;;13.30;1.00;;;;;;6220751;23;20485;-85
2022/09/20 02:12:49;;;;;;;10.40;3.33;;;13.30;1.00;;;;;;6223512;23;20502;-85
2022/09/20 02:15:41;;;;;;;8.23;2.50;;;13.30;1.00;;;;;;6196248;23;20424;-86
2022/09/20 02:18:37;;;;;;;11.97;3.20;;;13.30;1.00;;;;;;6190118;23;20403;-86
2022/09/20 02:25:25;;;;;;;;;;;;;;;;;;;;;
2022/09/20 02:28:34;;;;;;;7.77;2.60;;;13.30;1.00;;;;;;6136435;23;20409;-85
2022/09/20 02:31:15;;;;;;;6.17;2.80;;;13.20;1.00;;;;;;6191869;23;20385;-86
2022/09/20 02:34:12;;;;;;;6.03;2.23;;;13.20;1.00;;;;;;6187972;23;21033;-86
2022/09/20 02:37:08;;;;;;;7.50;2.60;;;13.20;1.00;;;;;;6190999;23;20471;-85
2022/09/20 02:40:25;;;;;;;9.97;2.77;;;13.20;1.00;;;;;;6192053;23;20380;-87
2022/09/20 02:43:21;;;;;;;11.60;4.30;;;13.20;1.00;;;;;;6102192;23;20415;-85
2022/09/20 02:49:35;;;;;;;;;;;;;;;;;;;;;
2022/09/20 02:53:03;;;;;;;6.97;2.77;;;13.10;1.00;;;;;;6107561;23;20392;-87
2022/09/20 02:56:32;;;;;;;7.00;3.17;;;13.10;12.40;;;;;;6058073;23;20443;-85
2022/09/20 02:59:20;;;;;;;8.57;3.20;;;13.10;17.20;;;;;;6189831;23;20388;-85
2022/09/20 03:06:04;;;;;;;8.37;3.53;;;13.10;93.40;;;;;;6124414;23;20403;-85
2022/09/20 03:09:33;;;;;;;7.80;2.93;;;13.10;72.10;;;;;;6198505;23;20868;-86
2022/09/20 03:12:24;;;;;;;11.10;3.57;;;13.10;99.90;;;;;;6173338;23;20382;-87
2022/09/20 03:15:36;;;;;;;10.33;3.80;;;13.00;99.90;;;;;;6200053;23;20423;-86
2022/09/20 03:18:43;;;;;;;17.47;3.83;;;13.00;99.90;;;;;;6199959;23;20401;-86
2022/09/20 03:21:49;;;;;;;9.27;3.53;;;13.00;99.90;;;;;;6221961;23;20420;-85
2022/09/20 03:24:33;;;;;;;7.87;3.10;;;13.00;99.90;;;;;;6200272;23;20370;-87
2022/09/20 03:27:30;;;;;;;11.53;3.80;;;13.00;99.90;;;;;;6197962;23;20405;-86
2022/09/20 03:30:47;;;;;;;6.93;3.30;;;13.00;99.90;;;;;;6200354;23;20357;-87
2022/09/20 03:34:08;;;;;;;;;;;;;;;;;;;;;
2022/09/20 03:36:46;;;;;;;12.20;4.37;;;13.00;99.90;;;;;;6106513;23;20440;-87
2022/09/20 03:40:06;;;;;;;10.73;4.07;;;13.00;99.90;;;;;;6199948;23;20365;-86
2022/09/20 03:46:23;;;;;;;9.63;4.10;;;12.90;99.90;;;;;;6200077;23;20397;-87
2022/09/20 03:49:47;;;;;;;;;;;;;;;;;;;;;
2022/09/20 03:56:05;;;;;;;9.63;4.63;;;12.90;99.90;;;;;;6187898;23;20443;-87
2022/09/20 04:02:13;;;;;;;9.10;4.83;;;12.90;99.90;;;;;;6195186;23;20380;-87
2022/09/20 04:05:20;;;;;;;10.03;4.67;;;12.90;99.90;;;;;;6199779;23;20385;-86
2022/09/20 04:08:37;;;;;;;6.17;3.80;;;12.90;99.90;;;;;;6198761;23;20381;-86
2022/09/20 04:15:06;;;;;;;8.33;4.63;;;12.90;99.90;;;;;;6195289;23;20426;-86
2022/09/20 04:18:22;;;;;;;10.47;5.20;;;12.90;99.90;;;;;;6191553;23;20393;-85
2022/09/20 04:24:49;;;;;;;8.23;5.40;;;12.90;99.90;;;;;;6216509;23;20409;-85
2022/09/20 04:28:05;;;;;;;9.97;4.70;;;12.90;1.00;;;;;;6048017;23;20410;-85
2022/09/20 04:34:31;;;;;;;;;;;;;;;;;;;;;
2022/09/20 04:44:23;;;;;;;13.60;6.23;;;12.90;1.00;;;;;;6222846;23;20443;-85
2022/09/20 04:53:59;;;;;;;11.93;6.40;;;12.80;1.00;;;;;;6234320;23;20353;-85
2022/09/20 04:57:12;;;;;;;13.07;6.40;;;12.80;1.00;;;;;;6223176;23;20389;-86
2022/09/20 05:00:56;;;;;;;;;;;;;;;;;;;;;
2022/09/20 05:03:51;;;;;;;12.67;6.70;;;12.80;1.00;;;;;;6162926;23;20453;-85
2022/09/20 05:07:02;;;;;;;10.67;6.90;;;12.80;1.00;;;;;;6223577;23;20395;-85
2022/09/20 05:09:52;;;;;;;14.00;9.23;;;12.80;1.00;;;;;;6223688;23;20851;-85
2022/09/20 05:16:20;;;;;;;;;;;;;;;;;;;;;
2022/09/20 06:43:09;;;;;;;;;;;;;;;;;;;;;
2022/09/20 07:07:31;;;;;;;11.63;4.77;;;21.20;99.90;;;;;;6082268;23;20849;-86
2022/09/20 07:10:15;;;;;;;10.47;4.87;;;20.70;99.90;;;;;;6093450;23;20428;-85
2022/09/20 07:13:55;;;;;;;;;;;;;;;;;;;;;
2022/09/20 07:19:38;;;;;;;;;;;;;;;;;;;;;
2022/09/20 07:25:49;;;;;;;11.90;4.90;;;18.10;1.00;;;;;;6106760;23;20444;-85
2022/09/20 07:29:08;;;;;;;7.00;4.37;;;18.30;1.00;;;;;;6200742;23;20844;-84
2022/09/20 07:32:21;;;;;;;;;;;;;;;;;;;;;
2022/09/20 07:35:01;;;;;;;11.37;5.27;;;18.60;99.90;;;;;;6171807;23;20409;-85
2022/09/20 07:45:02;;;;;;;7.30;4.30;;;23.80;99.90;;;;;;6162220;23;20429;-86
2022/09/20 07:55:18;;;;;;;4.93;2.40;;;37.00;99.90;;;;;;6189268;23;20454;-85
2022/09/20 07:58:04;;;;;;;5.80;2.07;;;38.90;99.90;;;;;;6130044;23;20382;-85
2022/09/20 08:00:44;;;;;;;3.57;1.77;;;40.40;99.90;;;;;;6153940;23;20734;-84
2022/09/20 08:06:52;;;;;;;4.80;2.00;;;40.90;99.90;;;;;;6185211;23;20397;-86
2022/09/20 08:12:32;;;;;;;3.77;2.10;;;41.60;85.10;;;;;;6176441;23;20381;-86
2022/09/20 08:15:42;;;;;;;;;;;;;;;;;;;;;
2022/09/20 08:18:16;;;;;;;5.23;1.80;;;42.50;62.10;;;;;;6187503;23;20457;-87
2022/09/20 08:21:20;;;;;;;4.43;2.00;;;42.60;55.10;;;;;;6185865;23;20436;-87
2022/09/20 08:24:09;;;;;;;5.63;2.10;;;42.70;49.10;;;;;;6185744;23;20401;-87
2022/09/20 08:30:49;;;;;;;2.63;1.70;;;43.70;41.30;;;;;;6174851;23;20848;-87
2022/09/20 08:36:25;;;;;;;5.07;2.00;;;43.90;30.30;;;;;;6189191;23;20784;-86
2022/09/20 08:42:00;;;;;;;6.47;2.53;;;43.70;23.70;;;;;;6174415;23;20386;-86
2022/09/20 08:45:21;;;;;;;4.70;1.73;;;43.70;22.30;;;;;;6183116;23;20477;-86
2022/09/20 08:48:15;;;;;;;4.30;1.60;;;42.90;17.40;;;;;;6070573;23;20398;-85
2022/09/20 08:57:29;;;;;;;3.87;1.97;;;43.80;14.20;;;;;;6188918;23;20421;-86
2022/09/20 09:00:24;;;;;;;4.47;1.77;;;44.10;13.50;;;;;;6182720;23;20481;-85
2022/09/20 09:03:37;;;;;;;5.10;1.50;;;43.10;9.10;;;;;;6186571;23;20355;-86
2022/09/20 09:06:42;;;;;;;;;;;;;;;;;;;;;
2022/09/20 09:12:32;;;;;;;4.43;1.77;;;38.80;4.10;;;;;;6179800;23;20880;-85
2022/09/20 09:15:32;;;;;;;5.83;1.93;;;39.90;6.20;;;;;;6206958;23;20432;-85
2022/09/20 09:21:12;;;;;;;3.87;1.33;;;35.90;1.00;;;;;;6202090;23;20385;-86
2022/09/20 09:24:20;;;;;;;3.07;1.33;;;35.00;1.00;;;;;;6187394;23;20382;-85
2022/09/20 09:27:12;;;;;;;5.70;1.30;;;35.40;2.00;;;;;;6183451;23;20413;-85
2022/09/20 09:29:55;;;;;;;3.23;1.07;;;36.70;5.20;;;;;;6185522;23;20378;-85
2022/09/20 09:32:37;;;;;;;;;;;;;;;;;;;;;
2022/09/20 09:35:26;;;;;;;2.60;1.30;;;35.70;2.10;;;;;;6188168;23;20504;-85
2022/09/20 09:37:57;;;;;;;5.30;1.57;;;33.30;1.00;;;;;;6189207;23;20401;-84
2022/09/20 09:43:39;;;;;;;5.57;2.70;;;29.30;1.00;;;;;;6180945;23;20452;-85
2022/09/20 09:46:26;;;;;;;6.87;2.00;;;27.70;1.00;;;;;;6190331;23;20416;-84
2022/09/20 09:49:37;;;;;;;6.57;1.80;;;26.90;1.00;;;;;;6191259;23;20409;-84
2022/09/20 09:52:35;;;;;;;;;;;;;;;;;;;;;
2022/09/20 09:55:04;;;;;;;6.33;2.67;;;29.00;10.50;;;;;;6187378;23;20505;-84
2022/09/20 09:57:54;;;;;;;3.37;2.00;;;29.20;11.50;;;;;;6185564;23;20405;-84
2022/09/20 10:00:44;;;;;;;4.53;1.67;;;28.50;10.40;;;;;;6186019;23;20369;-84
2022/09/20 10:03:46;;;;;;;6.43;2.93;;;27.50;9.90;;;;;;6188231;23;20872;-84
2022/09/20 10:06:30;;;;;;;6.93;2.07;;;26.40;8.40;;;;;;6189597;23;20405;-84
2022/09/20 10:09:03;;;;;;;7.40;2.07;;;25.90;8.90;;;;;;6186066;23;20480;-85
2022/09/20 10:11:58;;;;;;;4.80;1.60;;;25.80;9.70;;;;;;6187318;23;20881;-85
2022/09/20 10:14:49;;;;;;;6.13;1.60;;;26.10;11.00;;;;;;6210392;23;20464;-85
2022/09/20 10:18:13;;;;;;;;;;;;;;;;;;;;;
2022/09/20 10:20:54;;;;;;;4.83;1.70;;;28.70;18.30;;;;;;6182620;23;20370;-86
2022/09/20 10:23:43;;;;;;;4.60;2.43;;;28.60;17.00;;;;;;6217049;23;20393;-86
2022/09/20 10:26:26;;;;;;;8.00;1.80;;;28.00;16.10;;;;;;6194291;23;20432;-85
2022/09/20 10:29:19;;;;;;;5.13;1.70;;;27.30;15.40;;;;;;6193743;23;20471;-86
2022/09/20 10:32:30;;;;;;;3.67;1.30;;;26.10;13.80;;;;;;6196290;23;20409;-86
2022/09/20 10:35:13;;;;;;;4.67;1.80;;;25.50;13.60;;;;;;6196458;23;20436;-84
2022/09/20 10:38:06;;;;;;;7.60;1.90;;;24.60;13.50;;;;;;6189822;23;20368;-85
2022/09/20 10:44:35;;;;;;;8.03;1.73;;;24.10;15.20;;;;;;6193903;23;20698;-84
2022/09/20 10:47:18;;;;;;;8.83;1.50;;;23.40;14.30;;;;;;6193003;23;20415;-87
2022/09/20 10:50:09;;;;;;;7.17;1.93;;;22.70;13.90;;;;;;6193877;23;20390;-85
2022/09/20 10:53:19;;;;;;;6.80;1.53;;;22.10;14.60;;;;;;6195811;23;20374;-84
2022/09/20 10:56:09;;;;;;;4.87;1.50;;;21.50;14.00;;;;;;6193962;23;20504;-85
2022/09/20 10:58:54;;;;;;;5.57;1.97;;;20.90;14.90;;;;;;6192034;23;20388;-85
2022/09/20 11:01:48;;;;;;;5.43;1.43;;;20.50;15.10;;;;;;6197334;23;20365;-85
2022/09/20 11:04:34;;;;;;;4.27;1.17;;;20.10;16.00;;;;;;6193020;23;20380;-85
2022/09/20 11:07:42;;;;;;;4.20;1.47;;;20.00;17.10;;;;;;6193957;23;20414;-85
2022/09/20 11:10:34;;;;;;;3.80;1.37;;;19.90;18.90;;;;;;6220744;23;20388;-85
2022/09/20 11:13:17;;;;;;;4.57;1.40;;;19.80;21.30;;;;;;6196619;23;20361;-85
2022/09/20 11:16:08;;;;;;;7.50;1.57;;;19.60;23.10;;;;;;6194643;23;20431;-84
2022/09/20 11:19:00;;;;;;;4.57;1.30;;;19.50;25.40;;;;;;6154678;23;20387;-86
2022/09/20 11:21:59;;;;;;;5.10;2.33;;;19.40;27.20;;;;;;6198927;23;20373;-87
2022/09/20 11:24:40;;;;;;;8.70;1.30;;;19.10;30.00;;;;;;6171466;23;20762;-84
2022/09/20 11:27:47;;;;;;;2.70;1.20;;;18.80;32.40;;;;;;6197778;23;20410;-86
2022/09/20 11:34:07;;;;;;;3.97;1.30;;;18.50;43.00;;;;;;6197120;23;20380;-84
2022/09/20 11:37:13;;;;;;;6.40;1.67;;;18.50;52.80;;;;;;6158790;23;20417;-85
2022/09/20 11:40:04;;;;;;;2.47;1.23;;;18.50;60.40;;;;;;6193768;23;20378;-84
2022/09/20 11:42:41;;;;;;;4.20;1.20;;;18.40;74.10;;;;;;6193944;23;20364;-84
2022/09/20 11:45:36;;;;;;;;;;;;;;;;;;;;;
2022/09/20 11:48:31;;;;;;;3.47;1.80;;;18.40;91.90;;;;;;6197819;23;20388;-85
2022/09/20 11:51:50;;;;;;;4.93;1.37;;;18.30;95.30;;;;;;6146274;23;20399;-85
2022/09/20 11:55:00;;;;;;;;;;;;;;;;;;;;;
2022/09/20 11:57:35;;;;;;;11.43;1.73;;;18.80;99.90;;;;;;6198579;23;20438;-84
2022/09/20 12:00:19;;;;;;;;;;;;;;;;;;;;;
2022/09/20 12:03:11;;;;;;;12.07;1.60;;;19.20;99.90;;;;;;6199373;23;20371;-85
2022/09/20 12:05:55;;;;;;;5.70;1.43;;;19.30;99.90;;;;;;6186112;23;20411;-84
2022/09/20 12:17:48;;;;;;;15.20;2.87;;;18.40;99.90;;;;;;6188206;23;20382;-84
2022/09/20 12:20:37;;;;;;;9.77;2.47;;;18.30;99.90;;;;;;6201049;23;20376;-85
2022/09/20 12:23:46;;;;;;;6.00;3.07;;;18.40;99.90;;;;;;6207670;23;20389;-85
2022/09/20 12:26:20;;;;;;;7.47;2.73;;;18.40;99.90;;;;;;6203257;23;20512;-84
2022/09/20 12:28:50;;;;;;;6.33;2.67;;;18.40;99.90;;;;;;6192305;23;20377;-84
2022/09/20 12:31:21;;;;;;;8.17;2.43;;;18.50;99.90;;;;;;6217892;23;20489;-84
2022/09/20 12:34:04;;;;;;;7.37;2.63;;;18.70;99.90;;;;;;6193754;23;20461;-85
2022/09/20 12:36:53;;;;;;;8.90;2.70;;;19.00;99.90;;;;;;6195800;23;20429;-85
2022/09/20 12:39:39;;;;;;;4.10;2.07;;;19.10;99.90;;;;;;6186807;23;20431;-86
2022/09/20 12:42:55;;;;;;;5.53;2.47;;;19.20;99.90;;;;;;6192119;23;20425;-86
2022/09/20 12:45:37;;;;;;;6.50;2.03;;;19.40;99.90;;;;;;6191358;23;20379;-85
2022/09/20 12:48:18;;;;;;;6.73;2.47;;;19.50;99.90;;;;;;6192798;23;20399;-85
2022/09/20 12:58:45;;;;;;;7.93;2.33;;;19.60;99.90;;;;;;6216680;23;20451;-84
2022/09/20 13:01:26;;;;;;;8.70;2.70;;;19.70;99.90;;;;;;6218918;23;20440;-85
2022/09/20 13:04:31;;;;;;;6.80;2.50;;;20.00;99.90;;;;;;6224069;23;20374;-85
2022/09/20 13:11:12;;;;;;;5.03;1.57;;;20.60;99.90;;;;;;6187590;23;20382;-86
2022/09/20 13:14:17;;;;;;;15.93;9.40;;;21.30;99.90;;;;;;6168572;23;20385;-85
2022/09/20 13:17:08;;;;;;;6.57;2.80;;;22.60;99.90;;;;;;6201683;23;20446;-86
2022/09/20 13:20:00;;;;;;;6.20;3.40;;;23.00;99.90;;;;;;6221313;23;20390;-86
2022/09/20 13:22:56;;;;;;;4.63;1.90;;;23.30;99.90;;;;;;6220830;23;20377;-86
2022/09/20 13:25:47;;;;;;;2.60;1.20;;;23.40;99.90;;;;;;6222350;23;20355;-85
2022/09/20 13:28:53;;;;;;;6.97;4.03;;;23.30;99.90;;;;;;6222641;23;20361;-86
2022/09/20 13:31:58;;;;;;;5.43;3.10;;;22.90;99.90;;;;;;6206485;23;20729;-86
2022/09/20 13:37:48;;;;;;;4.93;1.43;;;23.40;99.90;;;;;;6186231;23;20439;-85
2022/09/20 13:40:24;;;;;;;7.10;3.77;;;23.80;99.90;;;;;;6201443;23;20385;-85
2022/09/20 13:43:26;;;;;;;11.07;7.10;;;24.10;99.60;;;;;;6241123;23;20392;-85
2022/09/20 13:46:08;;;;;;;5.03;2.30;;;24.50;99.50;;;;;;6241758;23;20747;-85
2022/09/20 13:49:00;;;;;;;7.17;2.70;;;24.70;98.70;;;;;;6217501;23;20368;-86
2022/09/20 13:54:47;;;;;;;7.43;1.53;;;24.60;94.50;;;;;;6206127;23;20381;-85
2022/09/20 13:57:39;;;;;;;5.00;1.20;;;24.20;92.30;;;;;;6211668;23;20427;-85
2022/09/20 14:00:16;;;;;;;5.67;3.50;;;24.00;91.10;;;;;;6217581;23;20363;-85
2022/09/20 14:06:16;;;;;;;4.90;2.17;;;23.00;83.40;;;;;;6205938;23;20891;-87
2022/09/20 14:12:13;;;;;;;4.47;1.90;;;22.70;82.70;;;;;;6201780;23;20381;-85
2022/09/20 14:18:40;;;;;;;;;;;;;;;;;;;;;
2022/09/20 14:21:36;;;;;;;7.53;1.20;;;24.10;85.90;;;;;;6213826;23;20449;-86
2022/09/20 14:24:43;;;;;;;2.17;1.10;;;24.20;84.40;;;;;;6220065;23;20364;-85
2022/09/20 14:31:16;;;;;;;5.30;1.70;;;23.60;75.00;;;;;;6181331;23;20447;-86
2022/09/20 14:33:58;;;;;;;3.40;0.90;;;23.40;71.20;;;;;;6221287;23;20400;-85
2022/09/20 14:36:49;;;;;;;3.73;1.10;;;23.20;69.10;;;;;;6224550;23;20458;-84
2022/09/20 14:39:55;;;;;;;3.07;1.03;;;23.20;68.40;;;;;;6224725;23;20389;-84
2022/09/20 14:42:48;;;;;;;5.97;1.03;;;23.20;66.00;;;;;;6221495;23;20392;-84
2022/09/20 14:46:02;;;;;;;1.77;1.10;;;23.00;63.70;;;;;;6223250;22;20407;-85
2022/09/20 14:49:32;;;;;;;;;;;;;;;;;;;;;
2022/09/20 14:52:42;;;;;;;7.17;1.30;;;23.50;62.90;;;;;;6200819;23;20429;-85
2022/09/20 14:55:44;;;;;;;5.33;1.97;;;23.70;59.90;;;;;;6222410;23;20925;-84
2022/09/20 14:58:57;;;;;;;4.53;0.93;;;23.70;58.70;;;;;;6224013;23;20874;-85
2022/09/20 15:07:59;;;;;;;4.93;2.50;;;22.40;50.30;;;;;;6210877;23;20380;-85
2022/09/20 15:10:35;;;;;;;1.97;0.80;;;22.00;49.40;;;;;;6230335;23;20386;-85
2022/09/20 15:13:29;;;;;;;3.47;1.00;;;21.70;48.30;;;;;;6226489;23;20345;-86
2022/09/20 15:16:05;;;;;;;6.17;0.97;;;21.50;48.60;;;;;;6223825;23;20486;-85
2022/09/20 15:18:52;;;;;;;;;;;;;;;;;;;;;
2022/09/20 15:24:53;;;;;;;5.47;1.30;;;21.00;48.60;;;;;;6213804;23;20389;-87
2022/09/20 15:27:19;;;;;;;4.37;1.20;;;20.80;48.20;;;;;;6203434;23;20407;-87
2022/09/20 15:30:26;;;;;;;4.47;1.00;;;20.60;48.40;;;;;;6223062;23;20385;-87
2022/09/20 15:32:55;;;;;;;4.40;1.20;;;20.70;49.90;;;;;;6207856;23;20484;-85
2022/09/20 15:35:53;;;;;;;3.60;1.03;;;20.60;49.70;;;;;;6218237;23;20475;-85
2022/09/20 15:38:47;;;;;;;3.30;0.90;;;20.50;50.50;;;;;;6213560;23;20455;-84
2022/09/20 15:41:23;;;;;;;2.97;1.00;;;20.40;51.60;;;;;;6207061;23;20391;-84
2022/09/20 15:43:49;;;;;;;6.33;1.20;;;20.40;52.50;;;;;;6225557;23;20364;-85
2022/09/20 15:47:03;;;;;;;4.80;1.30;;;20.40;52.60;;;;;;6223094;23;20408;-84
2022/09/20 15:49:35;;;;;;;6.80;1.07;;;20.20;51.90;;;;;;6212601;23;20156;-85
2022/09/20 15:52:20;;;;;;;;;;;;;;;;;;;;;
2022/09/20 15:55:03;;;;;;;;;;;;;;;;;;;;;
2022/09/20 15:57:33;;;;;;;3.70;1.00;;;19.80;52.80;;;;;;6222040;23;20453;-85
2022/09/20 16:00:18;;;;;;;4.67;2.60;;;19.70;53.20;;;;;;6221411;23;20403;-86
2022/09/20 16:03:29;;;;;;;2.10;1.20;;;19.50;53.70;;;;;;6200273;23;20381;-85
2022/09/20 16:06:27;;;;;;;;;;;;;;;;;;;;;
2022/09/20 16:12:47;;;;;;;2.80;0.90;;;19.30;58.30;;;;;;6191121;23;20895;-85
2022/09/20 16:26:32;;;;;;;;;;;;;;;;;;;;;
2022/09/20 16:29:06;;;;;;;2.13;1.00;;;19.60;64.00;;;;;;6101426;23;20401;-86
2022/09/20 16:31:46;;;;;;;4.43;1.00;;;19.50;63.70;;;;;;6109954;23;20401;-85
2022/09/20 16:34:59;;;;;;;5.40;1.23;;;19.40;65.40;;;;;;6228531;23;20406;-85
2022/09/20 16:37:40;;;;;;;2.93;1.13;;;19.20;64.50;;;;;;6173079;23;20453;-83
2022/09/20 16:40:53;;;;;;;2.43;0.80;;;19.20;65.90;;;;;;6249899;23;20380;-83
2022/09/20 16:49:46;;;;;;;4.90;2.13;;;19.10;69.70;;;;;;6219171;23;20470;-85
2022/09/20 16:52:32;;;;;;;4.30;1.30;;;19.00;72.10;;;;;;6216874;23;20429;-84
2022/09/20 17:21:52;;;;;;;4.90;2.13;;;17.80;86.20;;;;;;5990037;23;20419;-83
2022/09/20 17:37:49;;;;;;;6.20;1.17;;;17.20;95.70;;;;;;6203554;23;20419;-83
2022/09/20 17:40:43;;;;;;;4.13;1.17;;;17.20;98.50;;;;;;6130807;23;20777;-85
2022/09/20 17:43:31;;;;;;;1.83;1.00;;;17.10;99.90;;;;;;6211503;23;20399;-83
2022/09/20 17:46:48;;;;;;;7.63;1.13;;;17.00;99.90;;;;;;6182239;23;20538;-83
2022/09/20 17:49:44;;;;;;;2.10;1.33;;;16.80;99.90;;;;;;6190728;23;20447;-82
2022/09/20 17:52:17;;;;;;;4.83;1.67;;;16.70;99.90;;;;;;6095367;23;20471;-84
2022/09/20 17:55:04;;;;;;;3.10;1.50;;;16.70;99.90;;;;;;6188557;23;20914;-84
2022/09/20 18:16:50;;;;;;;11.13;6.00;;;16.30;99.90;;;;;;6095351;23;20443;-83
2022/09/20 18:19:20;;;;;;;9.30;4.40;;;16.20;99.90;;;;;;6192534;23;20395;-83
2022/09/20 18:22:05;;;;;;;4.60;2.53;;;16.10;99.90;;;;;;6218147;23;20986;-82
2022/09/20 18:27:23;;;;;;;23.40;17.20;;;16.00;99.90;;;;;;6203191;23;20427;-83
2022/09/20 19:23:54;;;;;;;5.37;3.27;;;15.60;99.90;;;;;;6194591;23;20451;-84
2022/09/20 19:33:30;;;;;;;;;;;;;;;;;;;;;
2022/09/20 19:40:21;;;;;;;;;;;;;;;;;;;;;
2022/09/20 19:47:09;;;;;;;10.30;4.10;;;14.80;1.00;;;;;;6227309;22;20527;-82
2022/09/20 19:57:43;;;;;;;;;;;;;;;;;;;;;
2022/09/20 20:00:56;;;;;;;;;;;;;;;;;;;;;
2022/09/20 20:07:36;;;;;;;12.20;4.67;;;14.30;99.90;;;;;;6131809;23;21213;-84
2022/09/20 20:31:37;;;;;;;9.77;5.20;;;13.90;1.00;;;;;;6158645;23;20452;-84
2022/09/20 20:35:11;;;;;;;;;;;;;;;;;;;;;
2022/09/20 20:42:01;;;;;;;;;;;;;;;;;;;;;
2022/09/20 20:51:56;;;;;;;10.63;6.20;;;13.50;99.90;;;;;;6011876;23;20410;-86
2022/09/20 21:19:15;;;;;;;;;;;;;;;;;;;;;
2022/09/20 21:22:24;;;;;;;9.40;6.03;;;13.10;1.00;;;;;;6068933;23;20460;-84
2022/09/20 21:29:04;;;;;;;15.60;6.23;;;12.90;20.20;;;;;;6067814;23;20404;-83
2022/09/20 21:48:49;;;;;;;10.93;6.20;;;12.70;99.90;;;;;;6127074;23;20375;-81
2022/09/20 22:04:23;;;;;;;11.60;6.37;;;12.50;1.00;;;;;;6228953;23;20763;-85
2022/09/20 22:06:54;;;;;;;15.83;6.67;;;12.50;1.00;;;;;;6215564;23;20554;-85
2022/09/20 22:09:44;;;;;;;9.80;6.30;;;12.50;10.50;;;;;;6215579;23;20400;-83
2022/09/20 22:12:22;;;;;;;9.60;6.47;;;12.50;99.90;;;;;;6216453;23;20396;-83
2022/09/20 22:15:31;;;;;;;14.37;6.67;;;12.50;99.90;;;;;;6215995;23;20411;-82
2022/09/20 22:18:23;;;;;;;12.50;7.47;;;12.40;99.90;;;;;;6195228;23;20403;-82
2022/09/20 22:21:06;;;;;;;9.47;6.60;;;12.40;99.90;;;;;;6217592;23;20384;-83
2022/09/20 22:23:41;;;;;;;13.37;7.77;;;12.40;99.90;;;;;;6216282;23;20389;-83
2022/09/20 22:26:52;;;;;;;13.70;7.20;;;12.30;99.90;;;;;;6215620;23;20435;-82
2022/09/20 22:30:17;;;;;;;;;;;;;;;;;;;;;
2022/09/20 22:33:08;;;;;;;;;;;;;;;;;;;;;
2022/09/20 23:51:18;;;;;;;14.50;5.93;;;11.50;99.90;;;;;;6218660;22;20458;-85
